Wetterdaten: Woche 28.11.05 - 04.12.05 (KW48)
Datum Zeit Temperatur Luftfeuchte Luftdruck Niederschlag Wind Richtung Sonne Solar Taupunkt Windchill
28.11.2005 00:00 -0.1 C 92 % 1000.9 hPa 0.0 l/m 0.0 km/h (0 Bft) N 0.00 h 0 W/m -1.2 C -0.1 C
28.11.2005 01:00 0.3 C 89 % 1000.9 hPa 0.0 l/m 0.8 km/h (0 Bft) W-SW 0.00 h 0 W/m -1.3 C 0.2 C
28.11.2005 02:00 0.3 C 83 % 1000.9 hPa 0.0 l/m 3.6 km/h (1 Bft) SO 0.00 h 0 W/m -2.3 C -0.6 C
28.11.2005 03:00 -0.5 C 82 % 1001.0 hPa 0.0 l/m 0.6 km/h (0 Bft) O-SO 0.00 h 0 W/m -3.1 C -0.5 C
28.11.2005 04:00 -0.1 C 82 % 1000.9 hPa 0.0 l/m 4.3 km/h (1 Bft) SO 0.00 h 0 W/m -2.8 C -1.2 C
28.11.2005 05:00 0.1 C 80 % 1000.9 hPa 0.0 l/m 1.4 km/h (1 Bft) O-NO 0.00 h 0 W/m -2.9 C -0.2 C
28.11.2005 06:00 1.2 C 75 % 1000.7 hPa 0.0 l/m 4.9 km/h (1 Bft) W 0.00 h 0 W/m -2.7 C 0.1 C
28.11.2005 07:00 0.7 C 83 % 1002.0 hPa 0.3 l/m 0.3 km/h (0 Bft) W-NW 0.00 h 2 W/m -1.9 C 0.7 C
28.11.2005 08:00 0.5 C 91 % 1002.9 hPa 0.6 l/m 0.1 km/h (0 Bft) N 0.00 h 13 W/m -0.7 C 0.5 C
28.11.2005 09:00 0.8 C 89 % 1003.1 hPa 0.6 l/m 0.1 km/h (0 Bft) N 0.00 h 33 W/m -0.7 C 0.8 C
28.11.2005 10:00 1.0 C 90 % 1003.9 hPa 0.0 l/m 0.3 km/h (0 Bft) W 0.00 h 68 W/m -0.4 C 1.0 C
28.11.2005 11:00 1.9 C 85 % 1003.7 hPa 0.0 l/m 1.4 km/h (1 Bft) W 0.00 h 129 W/m -0.3 C 1.6 C
28.11.2005 12:00 1.6 C 87 % 1003.8 hPa 0.3 l/m 3.6 km/h (1 Bft) SO 0.00 h 110 W/m -0.3 C 0.6 C
28.11.2005 13:00 1.9 C 86 % 1003.7 hPa 0.0 l/m 2.7 km/h (1 Bft) SW 0.00 h 119 W/m -0.3 C 1.3 C
28.11.2005 14:00 1.7 C 86 % 1003.8 hPa 0.0 l/m 2.6 km/h (1 Bft) SO 0.00 h 71 W/m -0.3 C 1.2 C
28.11.2005 15:00 1.4 C 87 % 1003.8 hPa 0.3 l/m 8.7 km/h (2 Bft) SO 0.00 h 35 W/m -0.6 C -1.0 C
28.11.2005 16:00 1.1 C 87 % 1003.9 hPa 0.3 l/m 8.1 km/h (2 Bft) SO 0.00 h 8 W/m -0.7 C -1.0 C
28.11.2005 17:00 1.0 C 89 % 1003.9 hPa 0.3 l/m 8.2 km/h (2 Bft) SO 0.00 h 0 W/m -0.5 C -1.4 C
28.11.2005 18:00 1.2 C 89 % 1004.6 hPa 0.3 l/m 4.1 km/h (1 Bft) SO 0.00 h 0 W/m -0.4 C 0.1 C
28.11.2005 19:00 1.2 C 91 % 1004.9 hPa 0.0 l/m 1.1 km/h (1 Bft) NO 0.00 h 0 W/m -0.2 C 1.0 C
28.11.2005 20:00 1.3 C 91 % 1004.9 hPa 0.0 l/m 1.7 km/h (1 Bft) SO 0.00 h 0 W/m -0.0 C 0.9 C
28.11.2005 21:00 1.4 C 91 % 1004.9 hPa 0.0 l/m 0.3 km/h (0 Bft) SW 0.00 h 0 W/m 0.1 C 1.4 C
28.11.2005 22:00 1.4 C 92 % 1004.9 hPa 0.0 l/m 1.8 km/h (1 Bft) SO 0.00 h 0 W/m 0.3 C 1.0 C
28.11.2005 23:00 1.4 C 93 % 1004.9 hPa 0.0 l/m 2.2 km/h (1 Bft) SO 0.00 h 0 W/m 0.3 C 0.8 C
29.11.2005 00:00 1.3 C 92 % 1004.9 hPa 0.3 l/m 0.6 km/h (0 Bft) O-SO 0.00 h 0 W/m 0.1 C 1.2 C
29.11.2005 01:00 0.9 C 92 % 1004.9 hPa 1.0 l/m 0.6 km/h (0 Bft) SO 0.00 h 0 W/m -0.2 C 0.9 C
29.11.2005 02:00 0.4 C 93 % 1005.0 hPa 1.0 l/m 0.2 km/h (0 Bft) O-SO 0.00 h 0 W/m -0.6 C 0.3 C
29.11.2005 03:00 0.4 C 94 % 1005.0 hPa 0.6 l/m 0.1 km/h (0 Bft) SO 0.00 h 0 W/m -0.5 C 0.4 C
29.11.2005 04:00 0.4 C 94 % 1005.0 hPa 1.3 l/m 2.5 km/h (1 Bft) O-SO 0.00 h 0 W/m -0.5 C 0.0 C
29.11.2005 05:00 0.3 C 95 % 1005.0 hPa 1.3 l/m 1.2 km/h (1 Bft) O-SO 0.00 h 0 W/m -0.4 C 0.3 C
29.11.2005 06:00 0.3 C 95 % 1005.0 hPa 1.0 l/m 0.2 km/h (0 Bft) O-SO 0.00 h 0 W/m -0.3 C 0.3 C
29.11.2005 07:00 0.3 C 96 % 1005.9 hPa 1.0 l/m 0.0 km/h (0 Bft) N 0.00 h 2 W/m -0.3 C 0.3 C
29.11.2005 08:00 0.2 C 96 % 1006.1 hPa 1.3 l/m 0.0 km/h (0 Bft) N 0.00 h 10 W/m -0.3 C 0.2 C
29.11.2005 09:00 0.5 C 97 % 1006.3 hPa 1.0 l/m 0.0 km/h (0 Bft) N 0.00 h 37 W/m 0.0 C 0.5 C
29.11.2005 10:00 0.8 C 96 % 1007.0 hPa 0.6 l/m 0.0 km/h (0 Bft) N 0.00 h 80 W/m 0.3 C 0.8 C
29.11.2005 11:00 1.2 C 94 % 1006.8 hPa 0.6 l/m 0.0 km/h (0 Bft) N 0.00 h 140 W/m 0.4 C 1.2 C
29.11.2005 12:00 1.7 C 91 % 1006.5 hPa 0.0 l/m 0.0 km/h (0 Bft) N 0.10 h 161 W/m 0.5 C 1.7 C
29.11.2005 13:00 1.8 C 90 % 1006.5 hPa 0.3 l/m 0.0 km/h (0 Bft) N 0.00 h 85 W/m 0.4 C 1.8 C
29.11.2005 14:00 1.6 C 91 % 1006.9 hPa 0.0 l/m 0.2 km/h (0 Bft) S-SW 0.00 h 90 W/m 0.3 C 1.6 C
29.11.2005 15:00 1.4 C 93 % 1006.9 hPa 0.0 l/m 0.2 km/h (0 Bft) N 0.00 h 38 W/m 0.4 C 1.4 C
29.11.2005 16:00 1.4 C 93 % 1006.9 hPa 0.0 l/m 0.0 km/h (0 Bft) N 0.03 h 14 W/m 0.4 C 1.4 C
29.11.2005 17:00 1.1 C 94 % 1007.0 hPa 0.0 l/m 0.0 km/h (0 Bft) N 0.00 h 0 W/m 0.3 C 1.1 C
29.11.2005 18:00 0.9 C 96 % 1007.0 hPa 0.0 l/m 0.0 km/h (0 Bft) N 0.00 h 0 W/m 0.4 C 0.9 C
29.11.2005 19:00 1.1 C 97 % 1007.6 hPa 0.0 l/m 0.3 km/h (0 Bft) SW 0.00 h 0 W/m 0.6 C 1.0 C
29.11.2005 20:00 1.0 C 97 % 1008.0 hPa 0.0 l/m 0.0 km/h (0 Bft) N 0.00 h 0 W/m 0.5 C 1.0 C
29.11.2005 21:00 0.9 C 97 % 1008.7 hPa 0.0 l/m 0.6 km/h (0 Bft) SW 0.00 h 0 W/m 0.5 C 0.9 C
29.11.2005 22:00 0.7 C 97 % 1009.1 hPa 0.0 l/m 0.0 km/h (0 Bft) N 0.00 h 0 W/m 0.3 C 0.7 C
29.11.2005 23:00 0.8 C 97 % 1009.1 hPa 0.0 l/m 1.1 km/h (1 Bft) SW 0.00 h 0 W/m 0.4 C 0.8 C
30.11.2005 00:00 0.9 C 98 % 1009.1 hPa 0.0 l/m 0.0 km/h (0 Bft) N 0.00 h 0 W/m 0.5 C 0.9 C
30.11.2005 01:00 1.0 C 98 % 1009.1 hPa 0.3 l/m 0.0 km/h (0 Bft) N 0.00 h 0 W/m 0.7 C 1.0 C
30.11.2005 02:00 0.9 C 98 % 1009.1 hPa 0.3 l/m 0.0 km/h (0 Bft) N 0.00 h 0 W/m 0.6 C 0.9 C
30.11.2005 03:00 0.8 C 98 % 1009.1 hPa 0.6 l/m 0.0 km/h (0 Bft) N 0.00 h 0 W/m 0.5 C 0.8 C
30.11.2005 04:00 0.4 C 98 % 1009.2 hPa 2.0 l/m 0.3 km/h (0 Bft) O-SO 0.00 h 0 W/m 0.1 C 0.4 C
30.11.2005 05:00 0.3 C 98 % 1009.6 hPa 0.6 l/m 0.0 km/h (0 Bft) N 0.00 h 0 W/m -0.0 C 0.3 C
30.11.2005 06:00 0.2 C 98 % 1010.4 hPa 1.0 l/m 0.0 km/h (0 Bft) N 0.00 h 0 W/m -0.1 C 0.2 C
30.11.2005 07:00 0.2 C 98 % 1012.6 hPa 1.6 l/m 0.0 km/h (0 Bft) N 0.00 h 1 W/m -0.1 C 0.2 C
30.11.2005 08:00 0.2 C 98 % 1013.4 hPa 2.3 l/m 0.0 km/h (0 Bft) N 0.00 h 11 W/m -0.1 C 0.2 C
30.11.2005 09:00 0.4 C 98 % 1013.8 hPa 0.3 l/m 0.0 km/h (0 Bft) N 0.00 h 44 W/m 0.1 C 0.4 C
30.11.2005 10:00 0.7 C 98 % 1014.7 hPa 0.0 l/m 0.0 km/h (0 Bft) N 0.00 h 73 W/m 0.4 C 0.7 C
30.11.2005 11:00 1.2 C 98 % 1015.3 hPa 0.0 l/m 0.0 km/h (0 Bft) N 0.00 h 77 W/m 0.9 C 1.2 C
30.11.2005 12:00 1.6 C 97 % 1015.2 hPa 0.0 l/m 0.0 km/h (0 Bft) N 0.00 h 90 W/m 1.2 C 1.6 C
30.11.2005 13:00 2.0 C 92 % 1014.6 hPa 0.0 l/m 0.1 km/h (0 Bft) N 0.00 h 104 W/m 0.9 C 2.0 C
30.11.2005 14:00 1.8 C 92 % 1014.2 hPa 0.0 l/m 0.0 km/h (0 Bft) N 0.00 h 44 W/m 0.7 C 1.8 C
30.11.2005 15:00 1.6 C 94 % 1014.4 hPa 0.0 l/m 0.0 km/h (0 Bft) N 0.00 h 17 W/m 0.7 C 1.6 C
30.11.2005 16:00 1.5 C 94 % 1015.2 hPa 0.0 l/m 0.0 km/h (0 Bft) N 0.00 h 6 W/m 0.6 C 1.5 C
30.11.2005 17:00 1.3 C 94 % 1015.3 hPa 0.0 l/m 0.0 km/h (0 Bft) N 0.00 h 0 W/m 0.4 C 1.3 C
30.11.2005 18:00 1.2 C 95 % 1015.3 hPa 0.0 l/m 0.0 km/h (0 Bft) N 0.00 h 0 W/m 0.5 C 1.2 C
30.11.2005 19:00 1.3 C 96 % 1015.3 hPa 0.0 l/m 0.0 km/h (0 Bft) N 0.00 h 0 W/m 0.7 C 1.3 C
30.11.2005 20:00 1.1 C 95 % 1015.3 hPa 0.0 l/m 0.0 km/h (0 Bft) N 0.00 h 0 W/m 0.4 C 1.1 C
30.11.2005 21:00 1.0 C 95 % 1015.3 hPa 0.0 l/m 0.0 km/h (0 Bft) N 0.00 h 0 W/m 0.3 C 1.0 C
30.11.2005 22:00 1.1 C 96 % 1015.3 hPa 0.0 l/m 0.0 km/h (0 Bft) N 0.00 h 0 W/m 0.6 C 1.1 C
30.11.2005 23:00 0.9 C 96 % 1015.3 hPa 0.0 l/m 0.0 km/h (0 Bft) N 0.00 h 0 W/m 0.4 C 0.9 C
01.12.2005 00:00 0.9 C 96 % 1015.3 hPa 0.0 l/m 0.0 km/h (0 Bft) N 0.00 h 0 W/m 0.3 C 0.9 C
01.12.2005 01:00 0.8 C 96 % 1015.0 hPa 0.0 l/m 0.0 km/h (0 Bft) N 0.00 h 0 W/m 0.2 C 0.8 C
01.12.2005 02:00 0.8 C 96 % 1014.4 hPa 0.0 l/m 0.0 km/h (0 Bft) N 0.00 h 0 W/m 0.3 C 0.8 C
01.12.2005 03:00 0.6 C 96 % 1014.3 hPa 0.0 l/m 0.0 km/h (0 Bft) N 0.00 h 0 W/m 0.1 C 0.6 C
01.12.2005 04:00 0.3 C 96 % 1014.4 hPa 0.0 l/m 0.0 km/h (0 Bft) N 0.00 h 0 W/m -0.3 C 0.3 C
01.12.2005 05:00 0.1 C 97 % 1013.8 hPa 0.0 l/m 0.0 km/h (0 Bft) N 0.00 h 0 W/m -0.4 C 0.1 C
01.12.2005 06:00 0.2 C 97 % 1013.4 hPa 0.0 l/m 0.0 km/h (0 Bft) N 0.00 h 0 W/m -0.2 C 0.2 C
01.12.2005 07:00 0.2 C 97 % 1014.2 hPa 0.0 l/m 1.0 km/h (0 Bft) O 0.00 h 0 W/m -0.2 C 0.0 C
01.12.2005 08:00 0.3 C 96 % 1014.4 hPa 0.0 l/m 0.6 km/h (0 Bft) O 0.00 h 16 W/m -0.2 C 0.1 C
01.12.2005 09:00 0.6 C 92 % 1014.3 hPa 0.0 l/m 0.0 km/h (0 Bft) N 0.00 h 43 W/m -0.6 C 0.6 C
01.12.2005 10:00 0.8 C 85 % 1014.3 hPa 0.0 l/m 0.0 km/h (0 Bft) N 0.00 h 79 W/m -1.4 C 0.8 C
01.12.2005 11:00 0.8 C 78 % 1014.1 hPa 0.0 l/m 0.7 km/h (0 Bft) O-SO 0.00 h 75 W/m -2.6 C 0.6 C
01.12.2005 12:00 0.8 C 78 % 1012.9 hPa 0.0 l/m 0.1 km/h (0 Bft) N 0.00 h 63 W/m -2.7 C 0.8 C
01.12.2005 13:00 1.0 C 73 % 1012.2 hPa 0.0 l/m 0.4 km/h (0 Bft) O-SO 0.00 h 95 W/m -3.2 C 1.0 C
01.12.2005 14:00 1.2 C 72 % 1011.7 hPa 0.0 l/m 0.0 km/h (0 Bft) N 0.00 h 88 W/m -3.3 C 1.2 C
01.12.2005 15:00 1.0 C 74 % 1011.2 hPa 0.0 l/m 0.0 km/h (0 Bft) N 0.00 h 45 W/m -3.2 C 1.0 C
01.12.2005 16:00 0.1 C 76 % 1011.3 hPa 0.0 l/m 0.0 km/h (0 Bft) N 0.00 h 15 W/m -3.5 C 0.1 C
01.12.2005 17:00 -1.4 C 79 % 1011.5 hPa 0.0 l/m 0.0 km/h (0 Bft) N 0.00 h 0 W/m -4.5 C -1.4 C
01.12.2005 18:00 -2.2 C 83 % 1011.6 hPa 0.0 l/m 0.0 km/h (0 Bft) N 0.00 h 0 W/m -4.7 C -2.2 C
01.12.2005 19:00 -3.1 C 85 % 1011.2 hPa 0.0 l/m 0.0 km/h (0 Bft) N 0.00 h 0 W/m -5.2 C -3.1 C
01.12.2005 20:00 -3.6 C 86 % 1010.8 hPa 0.0 l/m 0.0 km/h (0 Bft) N 0.00 h 0 W/m -5.5 C -3.6 C
01.12.2005 21:00 -4.2 C 86 % 1010.9 hPa 0.0 l/m 0.0 km/h (0 Bft) N 0.00 h 0 W/m -6.2 C -4.2 C
01.12.2005 22:00 -4.6 C 85 % 1010.6 hPa 0.0 l/m 0.0 km/h (0 Bft) N 0.00 h 0 W/m -6.6 C -4.6 C
01.12.2005 23:00 -3.9 C 88 % 1009.8 hPa 0.0 l/m 0.0 km/h (0 Bft) N 0.00 h 0 W/m -5.6 C -3.9 C
02.12.2005 00:00 -2.7 C 90 % 1009.6 hPa 0.0 l/m 0.1 km/h (0 Bft) N 0.00 h 0 W/m -4.1 C -2.7 C
02.12.2005 01:00 -2.6 C 89 % 1009.4 hPa 0.0 l/m 0.0 km/h (0 Bft) N 0.00 h 0 W/m -4.2 C -2.6 C
02.12.2005 02:00 -2.6 C 87 % 1008.8 hPa 0.0 l/m 0.0 km/h (0 Bft) N 0.00 h 0 W/m -4.4 C -2.6 C
02.12.2005 03:00 -2.6 C 86 % 1008.5 hPa 0.0 l/m 0.1 km/h (0 Bft) O-SO 0.00 h 0 W/m -4.7 C -2.6 C
02.12.2005 04:00 -2.8 C 85 % 1007.6 hPa 0.0 l/m 0.0 km/h (0 Bft) N 0.00 h 0 W/m -5.0 C -2.8 C
02.12.2005 05:00 -2.8 C 84 % 1007.6 hPa 0.0 l/m 0.0 km/h (0 Bft) N 0.00 h 0 W/m -5.1 C -2.8 C
02.12.2005 06:00 -2.9 C 83 % 1007.4 hPa 0.0 l/m 0.2 km/h (0 Bft) O-SO 0.00 h 0 W/m -5.4 C -2.9 C
02.12.2005 07:00 -2.9 C 82 % 1006.5 hPa 0.0 l/m 0.0 km/h (0 Bft) N 0.00 h 0 W/m -5.5 C -2.9 C
02.12.2005 08:00 -2.8 C 81 % 1006.5 hPa 0.0 l/m 0.0 km/h (0 Bft) N 0.00 h 19 W/m -5.7 C -2.8 C
02.12.2005 09:00 -2.5 C 79 % 1006.3 hPa 0.0 l/m 0.1 km/h (0 Bft) N 0.00 h 76 W/m -5.7 C -2.5 C
02.12.2005 10:00 -1.8 C 77 % 1005.4 hPa 0.0 l/m 0.8 km/h (0 Bft) O-SO 0.13 h 136 W/m -5.3 C -2.0 C
02.12.2005 11:00 -1.5 C 76 % 1004.8 hPa 0.0 l/m 5.7 km/h (1 Bft) O-SO 0.17 h 182 W/m -5.2 C -3.4 C
02.12.2005 12:00 -0.8 C 73 % 1003.6 hPa 0.0 l/m 1.5 km/h (1 Bft) O 1.00 h 273 W/m -5.0 C -0.9 C
02.12.2005 13:00 -0.3 C 69 % 1002.9 hPa 0.0 l/m 3.1 km/h (1 Bft) O-SO 0.00 h 127 W/m -5.2 C -1.3 C
02.12.2005 14:00 -0.3 C 70 % 1002.0 hPa 0.0 l/m 4.1 km/h (1 Bft) O-SO 0.00 h 58 W/m -5.1 C -1.5 C
02.12.2005 15:00 -0.2 C 67 % 1001.5 hPa 0.0 l/m 0.0 km/h (0 Bft) N 0.00 h 33 W/m -5.5 C -0.2 C
02.12.2005 16:00 -0.3 C 67 % 1000.9 hPa 0.0 l/m 0.1 km/h (0 Bft) N 0.00 h 6 W/m -5.7 C -0.3 C
02.12.2005 17:00 -0.5 C 70 % 1001.0 hPa 0.0 l/m 0.0 km/h (0 Bft) N 0.00 h 0 W/m -5.3 C -0.5 C
02.12.2005 18:00 -0.3 C 72 % 1001.2 hPa 0.0 l/m 1.2 km/h (1 Bft) O-SO 0.00 h 0 W/m -4.7 C -0.5 C
02.12.2005 19:00 -0.2 C 75 % 1001.3 hPa 0.0 l/m 0.3 km/h (0 Bft) N 0.00 h 0 W/m -4.0 C -0.2 C
02.12.2005 20:00 -0.2 C 75 % 1001.6 hPa 0.0 l/m 1.6 km/h (1 Bft) O-SO 0.00 h 0 W/m -4.0 C -0.6 C
02.12.2005 21:00 -0.2 C 76 % 1001.8 hPa 0.0 l/m 2.5 km/h (1 Bft) O-SO 0.00 h 0 W/m -4.0 C -0.9 C
02.12.2005 22:00 -0.1 C 76 % 1002.6 hPa 0.0 l/m 0.9 km/h (0 Bft) O-SO 0.00 h 0 W/m -3.9 C -0.2 C
02.12.2005 23:00 0.1 C 83 % 1003.2 hPa 1.6 l/m 0.0 km/h (0 Bft) N 0.00 h 0 W/m -2.5 C 0.1 C
03.12.2005 00:00 0.1 C 89 % 1003.8 hPa 0.6 l/m 1.0 km/h (0 Bft) O-SO 0.00 h 0 W/m -1.5 C -0.1 C
03.12.2005 01:00 0.3 C 91 % 1003.9 hPa 0.3 l/m 0.0 km/h (0 Bft) N 0.00 h 0 W/m -1.0 C 0.3 C
03.12.2005 02:00 0.6 C 93 % 1002.9 hPa 0.3 l/m 0.0 km/h (0 Bft) N 0.00 h 0 W/m -0.4 C 0.6 C
03.12.2005 03:00 0.8 C 94 % 1002.9 hPa 0.0 l/m 0.2 km/h (0 Bft) O-SO 0.00 h 0 W/m -0.1 C 0.7 C
03.12.2005 04:00 0.6 C 94 % 1002.9 hPa 0.0 l/m 1.1 km/h (0 Bft) O-SO 0.00 h 0 W/m -0.3 C 0.3 C
03.12.2005 05:00 0.6 C 94 % 1002.9 hPa 0.0 l/m 0.0 km/h (0 Bft) N 0.00 h 0 W/m -0.2 C 0.6 C
03.12.2005 06:00 0.5 C 95 % 1002.9 hPa 0.0 l/m 0.2 km/h (0 Bft) N 0.00 h 0 W/m -0.2 C 0.5 C
03.12.2005 07:00 0.2 C 95 % 1003.0 hPa 0.0 l/m 0.0 km/h (0 Bft) N 0.00 h 0 W/m -0.5 C 0.2 C
03.12.2005 08:00 0.3 C 96 % 1003.6 hPa 0.0 l/m 2.0 km/h (1 Bft) O-SO 0.00 h 22 W/m -0.2 C -0.3 C
03.12.2005 09:00 1.7 C 96 % 1004.0 hPa 0.0 l/m 0.9 km/h (0 Bft) O 0.00 h 47 W/m 1.1 C 1.4 C
03.12.2005 10:00 2.1 C 94 % 1004.8 hPa 0.0 l/m 0.0 km/h (0 Bft) N 0.00 h 96 W/m 1.1 C 2.1 C
03.12.2005 11:00 2.8 C 91 % 1004.7 hPa 0.0 l/m 0.0 km/h (0 Bft) N 0.00 h 153 W/m 1.6 C 2.8 C
03.12.2005 12:00 3.5 C 88 % 1004.6 hPa 0.0 l/m 0.5 km/h (0 Bft) O 0.00 h 176 W/m 1.7 C 3.4 C
03.12.2005 13:00 3.6 C 86 % 1005.1 hPa 0.0 l/m 0.8 km/h (0 Bft) N 0.00 h 167 W/m 1.6 C 3.6 C
03.12.2005 14:00 4.1 C 83 % 1005.5 hPa 0.0 l/m 2.6 km/h (1 Bft) W-NW 0.60 h 215 W/m 1.5 C 3.5 C
03.12.2005 15:00 4.1 C 84 % 1005.5 hPa 0.0 l/m 0.3 km/h (0 Bft) W-NW 0.07 h 45 W/m 1.6 C 4.0 C
03.12.2005 16:00 2.8 C 86 % 1006.0 hPa 0.0 l/m 0.0 km/h (0 Bft) N 0.00 h 10 W/m 0.6 C 2.8 C
03.12.2005 17:00 2.7 C 92 % 1006.8 hPa 0.0 l/m 0.3 km/h (0 Bft) W-NW 0.00 h 0 W/m 1.5 C 2.7 C
03.12.2005 18:00 2.2 C 93 % 1006.8 hPa 0.0 l/m 0.0 km/h (0 Bft) N 0.00 h 0 W/m 1.2 C 2.2 C
03.12.2005 19:00 2.3 C 94 % 1007.6 hPa 0.0 l/m 0.0 km/h (0 Bft) N 0.00 h 0 W/m 1.4 C 2.3 C
03.12.2005 20:00 2.2 C 94 % 1007.9 hPa 0.0 l/m 0.0 km/h (0 Bft) N 0.00 h 0 W/m 1.3 C 2.2 C
03.12.2005 21:00 2.3 C 94 % 1007.8 hPa 0.0 l/m 0.8 km/h (0 Bft) W-NW 0.00 h 0 W/m 1.5 C 2.1 C
03.12.2005 22:00 3.7 C 94 % 1007.7 hPa 0.0 l/m 5.9 km/h (2 Bft) SO 0.00 h 0 W/m 2.8 C 2.5 C
03.12.2005 23:00 4.9 C 84 % 1007.5 hPa 0.0 l/m 9.4 km/h (2 Bft) SO 0.00 h 0 W/m 2.4 C 3.1 C
04.12.2005 00:00 5.6 C 76 % 1007.4 hPa 0.0 l/m 5.0 km/h (1 Bft) W 0.00 h 0 W/m 1.6 C 4.7 C
04.12.2005 01:00 6.8 C 66 % 1007.0 hPa 0.0 l/m 14.2 km/h (3 Bft) W 0.00 h 0 W/m 0.9 C 4.4 C
04.12.2005 02:00 5.6 C 72 % 1006.3 hPa 0.0 l/m 15.0 km/h (3 Bft) SO 0.00 h 0 W/m 0.9 C 2.5 C
04.12.2005 03:00 5.5 C 74 % 1006.4 hPa 0.0 l/m 18.8 km/h (3 Bft) SO 0.00 h 0 W/m 1.3 C 1.9 C
04.12.2005 04:00 5.8 C 74 % 1005.8 hPa 0.0 l/m 15.5 km/h (3 Bft) SO 0.00 h 0 W/m 1.4 C 2.7 C
04.12.2005 05:00 6.1 C 75 % 1005.2 hPa 0.3 l/m 16.4 km/h (3 Bft) W-SW 0.00 h 0 W/m 2.0 C 3.4 C
04.12.2005 06:00 6.0 C 79 % 1005.2 hPa 1.3 l/m 16.6 km/h (3 Bft) S 0.00 h 0 W/m 2.6 C 2.9 C
04.12.2005 07:00 6.3 C 82 % 1006.2 hPa 0.6 l/m 15.9 km/h (3 Bft) SW 0.00 h 0 W/m 3.4 C 3.3 C
04.12.2005 08:00 6.8 C 75 % 1006.2 hPa 0.0 l/m 19.5 km/h (3 Bft) W 0.00 h 5 W/m 2.8 C 3.6 C
04.12.2005 09:00 6.6 C 74 % 1006.2 hPa 0.0 l/m 15.1 km/h (3 Bft) S-SO 0.00 h 23 W/m 2.3 C 3.9 C
04.12.2005 10:00 7.0 C 72 % 1006.1 hPa 0.0 l/m 17.3 km/h (3 Bft) SO 0.00 h 53 W/m 2.3 C 3.9 C
04.12.2005 11:00 7.2 C 72 % 1005.2 hPa 0.0 l/m 12.1 km/h (2 Bft) SO 0.00 h 64 W/m 2.5 C 5.0 C
04.12.2005 12:00 7.4 C 73 % 1004.3 hPa 0.0 l/m 11.9 km/h (2 Bft) SO 0.00 h 65 W/m 2.8 C 5.3 C
04.12.2005 13:00 7.8 C 70 % 1003.0 hPa 0.0 l/m 15.5 km/h (3 Bft) SO 0.00 h 48 W/m 2.7 C 5.1 C
04.12.2005 14:00 7.4 C 73 % 1002.9 hPa 0.6 l/m 16.9 km/h (3 Bft) S-SO 0.00 h 21 W/m 2.8 C 4.5 C
04.12.2005 15:00 7.1 C 75 % 1002.0 hPa 0.0 l/m 15.3 km/h (3 Bft) SO 0.00 h 11 W/m 3.0 C 4.5 C
04.12.2005 16:00 7.2 C 74 % 1001.0 hPa 0.0 l/m 11.9 km/h (2 Bft) SO 0.00 h 4 W/m 2.8 C 5.1 C
04.12.2005 17:00 7.7 C 71 % 1001.2 hPa 0.0 l/m 15.7 km/h (3 Bft) S-SO 0.00 h 0 W/m 2.7 C 5.1 C
04.12.2005 18:00 7.1 C 76 % 1000.9 hPa 0.0 l/m 12.0 km/h (2 Bft) SO 0.00 h 0 W/m 3.1 C 5.0 C
04.12.2005 19:00 7.2 C 77 % 1001.7 hPa 0.0 l/m 12.6 km/h (3 Bft) SO 0.00 h 0 W/m 3.4 C 4.8 C
04.12.2005 20:00 7.4 C 75 % 1001.8 hPa 0.0 l/m 15.3 km/h (3 Bft) SO 0.00 h 0 W/m 3.3 C 4.8 C
04.12.2005 21:00 7.9 C 69 % 1001.0 hPa 0.0 l/m 20.8 km/h (4 Bft) W 0.00 h 0 W/m 2.5 C 4.8 C
04.12.2005 22:00 8.0 C 66 % 1001.1 hPa 0.0 l/m 12.9 km/h (3 Bft) W 0.00 h 0 W/m 2.0 C 6.1 C
04.12.2005 23:00 7.0 C 70 % 1001.4 hPa 0.0 l/m 6.3 km/h (2 Bft) SO 0.00 h 0 W/m 2.0 C 6.1 C
Min-Datum _ 01.12.05 04.12.05 28.11.05 - 28.11.05 - - - 01.12.05 02.12.05
_ Min-Zeit 23:09 01:37 06:27 - 00:01 - - - 23:09 11:27
Minimum _ -5.2 C 63 % 1000.7 hPa - 0.0 km/h (0 Bft) - - - -7.3 C -5.9 C
Max-Datum _ 04.12.05 30.11.05 30.11.05 30.11.05 04.12.05 - 29.11.05 03.12.05 03.12.05 04.12.05
_ Max-Zeit 21:47 10:25 10:43 08:11 08:13 - 12:07 14:21 23:01 22:16
Maximum _ 8.2 C 99 % 1015.4 hPa 2.3 l/m 38.1 km/h
W (5 Bft)
- 0.03 h 380 W/m 4.2 C 8.0 C
Durchschnitt _ 1.4 C 87 % 1007.0 hPa #29.6 l/m 2.8 km/h (1 Bft) SO #2:06 h 66 W/m -0.6 C 0.9 C
© Kaiko 2005